sensor_id;sensor_type;location;lat;lon;timestamp;temperature;humidity
11474;DHT22;5793;52.238;13.438;2023-09-19T00:00:56;17.40;99.90
11474;DHT22;5793;52.238;13.438;2023-09-19T00:03:25;17.30;99.90
11474;DHT22;5793;52.238;13.438;2023-09-19T00:05:54;17.40;99.90
11474;DHT22;5793;52.238;13.438;2023-09-19T00:08:22;17.30;99.90
11474;DHT22;5793;52.238;13.438;2023-09-19T00:10:50;17.30;99.90
11474;DHT22;5793;52.238;13.438;2023-09-19T00:13:18;17.30;99.90
11474;DHT22;5793;52.238;13.438;2023-09-19T00:15:47;17.30;99.90
11474;DHT22;5793;52.238;13.438;2023-09-19T00:18:17;17.30;99.90
11474;DHT22;5793;52.238;13.438;2023-09-19T00:20:47;17.30;99.90
11474;DHT22;5793;52.238;13.438;2023-09-19T00:23:16;17.30;99.90
11474;DHT22;5793;52.238;13.438;2023-09-19T00:25:46;17.20;99.90
11474;DHT22;5793;52.238;13.438;2023-09-19T00:28:14;17.20;99.90
11474;DHT22;5793;52.238;13.438;2023-09-19T00:30:43;17.20;99.90
11474;DHT22;5793;52.238;13.438;2023-09-19T00:33:11;17.20;99.90
11474;DHT22;5793;52.238;13.438;2023-09-19T00:35:48;17.20;99.90
11474;DHT22;5793;52.238;13.438;2023-09-19T00:38:16;17.30;99.90
11474;DHT22;5793;52.238;13.438;2023-09-19T00:40:46;17.20;99.90
11474;DHT22;5793;52.238;13.438;2023-09-19T00:43:14;17.20;99.90
11474;DHT22;5793;52.238;13.438;2023-09-19T00:45:45;17.20;99.90
11474;DHT22;5793;52.238;13.438;2023-09-19T00:48:15;17.10;99.90
11474;DHT22;5793;52.238;13.438;2023-09-19T00:50:46;17.10;99.90
11474;DHT22;5793;52.238;13.438;2023-09-19T00:53:18;17.10;99.90
11474;DHT22;5793;52.238;13.438;2023-09-19T00:55:48;17.00;99.90
11474;DHT22;5793;52.238;13.438;2023-09-19T00:58:17;17.10;99.90
11474;DHT22;5793;52.238;13.438;2023-09-19T01:00:46;17.10;99.90
11474;DHT22;5793;52.238;13.438;2023-09-19T01:03:14;17.00;99.90
11474;DHT22;5793;52.238;13.438;2023-09-19T01:05:42;17.10;99.90
11474;DHT22;5793;52.238;13.438;2023-09-19T01:08:10;17.00;99.90
11474;DHT22;5793;52.238;13.438;2023-09-19T01:10:58;17.00;99.90
11474;DHT22;5793;52.238;13.438;2023-09-19T01:13:31;17.10;99.90
11474;DHT22;5793;52.238;13.438;2023-09-19T01:16:06;17.10;99.90
11474;DHT22;5793;52.238;13.438;2023-09-19T01:18:55;17.10;99.90
11474;DHT22;5793;52.238;13.438;2023-09-19T01:21:30;17.10;99.90
11474;DHT22;5793;52.238;13.438;2023-09-19T01:24:16;17.10;99.90
11474;DHT22;5793;52.238;13.438;2023-09-19T01:27:06;17.00;99.90
11474;DHT22;5793;52.238;13.438;2023-09-19T01:29:39;17.00;99.90
11474;DHT22;5793;52.238;13.438;2023-09-19T01:32:10;17.10;99.90
11474;DHT22;5793;52.238;13.438;2023-09-19T01:34:44;17.00;99.90
11474;DHT22;5793;52.238;13.438;2023-09-19T01:37:13;16.90;99.90
11474;DHT22;5793;52.238;13.438;2023-09-19T01:39:46;16.90;99.90
11474;DHT22;5793;52.238;13.438;2023-09-19T01:42:24;16.90;99.90
11474;DHT22;5793;52.238;13.438;2023-09-19T01:45:05;16.80;99.90
11474;DHT22;5793;52.238;13.438;2023-09-19T01:47:42;16.90;99.90
11474;DHT22;5793;52.238;13.438;2023-09-19T01:50:17;16.80;99.90
11474;DHT22;5793;52.238;13.438;2023-09-19T01:52:52;16.90;99.90
11474;DHT22;5793;52.238;13.438;2023-09-19T01:55:21;16.90;99.90
11474;DHT22;5793;52.238;13.438;2023-09-19T01:57:58;16.90;99.90
11474;DHT22;5793;52.238;13.438;2023-09-19T02:00:29;16.90;99.90
11474;DHT22;5793;52.238;13.438;2023-09-19T02:02:59;16.90;99.90
11474;DHT22;5793;52.238;13.438;2023-09-19T02:05:27;16.90;99.90
11474;DHT22;5793;52.238;13.438;2023-09-19T02:07:57;16.80;99.90
11474;DHT22;5793;52.238;13.438;2023-09-19T02:10:28;16.90;99.90
11474;DHT22;5793;52.238;13.438;2023-09-19T02:12:56;16.90;99.90
11474;DHT22;5793;52.238;13.438;2023-09-19T02:15:25;16.90;99.90
11474;DHT22;5793;52.238;13.438;2023-09-19T02:17:53;16.90;99.90
11474;DHT22;5793;52.238;13.438;2023-09-19T02:20:25;16.90;99.90
11474;DHT22;5793;52.238;13.438;2023-09-19T02:22:53;16.90;99.90
11474;DHT22;5793;52.238;13.438;2023-09-19T02:25:21;16.80;99.90
11474;DHT22;5793;52.238;13.438;2023-09-19T02:27:49;16.80;99.90
11474;DHT22;5793;52.238;13.438;2023-09-19T02:30:20;16.70;99.90
11474;DHT22;5793;52.238;13.438;2023-09-19T02:32:51;16.60;99.90
11474;DHT22;5793;52.238;13.438;2023-09-19T02:35:19;16.40;99.90
11474;DHT22;5793;52.238;13.438;2023-09-19T02:37:48;16.30;99.90
11474;DHT22;5793;52.238;13.438;2023-09-19T02:40:16;16.30;99.90
11474;DHT22;5793;52.238;13.438;2023-09-19T02:42:46;16.30;99.90
11474;DHT22;5793;52.238;13.438;2023-09-19T02:45:16;16.30;99.90
11474;DHT22;5793;52.238;13.438;2023-09-19T02:47:45;16.30;99.90
11474;DHT22;5793;52.238;13.438;2023-09-19T02:50:14;16.30;99.90
11474;DHT22;5793;52.238;13.438;2023-09-19T02:52:43;16.30;99.90
11474;DHT22;5793;52.238;13.438;2023-09-19T02:55:13;16.20;99.90
11474;DHT22;5793;52.238;13.438;2023-09-19T02:57:46;16.20;99.90
11474;DHT22;5793;52.238;13.438;2023-09-19T03:00:14;16.20;99.90
11474;DHT22;5793;52.238;13.438;2023-09-19T03:02:42;16.20;99.90
11474;DHT22;5793;52.238;13.438;2023-09-19T03:05:10;16.30;99.90
11474;DHT22;5793;52.238;13.438;2023-09-19T03:07:39;16.30;99.90
11474;DHT22;5793;52.238;13.438;2023-09-19T03:10:07;16.30;99.90
11474;DHT22;5793;52.238;13.438;2023-09-19T03:12:37;16.30;99.90
11474;DHT22;5793;52.238;13.438;2023-09-19T03:15:07;16.40;99.90
11474;DHT22;5793;52.238;13.438;2023-09-19T03:17:37;16.30;99.90
11474;DHT22;5793;52.238;13.438;2023-09-19T03:20:06;16.30;99.90
11474;DHT22;5793;52.238;13.438;2023-09-19T03:22:35;16.40;99.90
11474;DHT22;5793;52.238;13.438;2023-09-19T03:25:03;16.50;99.90
11474;DHT22;5793;52.238;13.438;2023-09-19T03:27:34;16.50;99.90
11474;DHT22;5793;52.238;13.438;2023-09-19T03:30:04;16.60;99.90
11474;DHT22;5793;52.238;13.438;2023-09-19T03:32:35;16.70;99.90
11474;DHT22;5793;52.238;13.438;2023-09-19T03:35:04;16.70;99.90
11474;DHT22;5793;52.238;13.438;2023-09-19T03:37:32;16.70;99.90
11474;DHT22;5793;52.238;13.438;2023-09-19T03:40:00;16.60;99.90
11474;DHT22;5793;52.238;13.438;2023-09-19T03:42:32;16.60;99.90
11474;DHT22;5793;52.238;13.438;2023-09-19T03:45:04;16.60;99.90
11474;DHT22;5793;52.238;13.438;2023-09-19T03:47:33;16.60;99.90
11474;DHT22;5793;52.238;13.438;2023-09-19T03:50:01;16.50;99.90
11474;DHT22;5793;52.238;13.438;2023-09-19T03:52:29;16.50;99.90
11474;DHT22;5793;52.238;13.438;2023-09-19T03:54:57;16.40;99.90
11474;DHT22;5793;52.238;13.438;2023-09-19T03:57:25;16.40;99.90
11474;DHT22;5793;52.238;13.438;2023-09-19T03:59:53;16.30;99.90
11474;DHT22;5793;52.238;13.438;2023-09-19T04:02:22;16.30;99.90
11474;DHT22;5793;52.238;13.438;2023-09-19T04:04:52;16.30;99.90
11474;DHT22;5793;52.238;13.438;2023-09-19T04:07:19;16.30;99.90
11474;DHT22;5793;52.238;13.438;2023-09-19T04:09:49;16.30;99.90
11474;DHT22;5793;52.238;13.438;2023-09-19T04:12:19;16.30;99.90
11474;DHT22;5793;52.238;13.438;2023-09-19T04:14:47;16.30;99.90
11474;DHT22;5793;52.238;13.438;2023-09-19T04:17:15;16.30;99.90
11474;DHT22;5793;52.238;13.438;2023-09-19T04:19:45;16.30;99.90
11474;DHT22;5793;52.238;13.438;2023-09-19T04:22:13;16.20;99.90
11474;DHT22;5793;52.238;13.438;2023-09-19T04:24:41;16.20;99.90
11474;DHT22;5793;52.238;13.438;2023-09-19T04:27:09;16.20;99.90
11474;DHT22;5793;52.238;13.438;2023-09-19T04:29:39;16.20;99.90
11474;DHT22;5793;52.238;13.438;2023-09-19T04:32:08;16.20;99.90
11474;DHT22;5793;52.238;13.438;2023-09-19T04:34:36;16.30;99.90
11474;DHT22;5793;52.238;13.438;2023-09-19T04:37:06;16.20;99.90
11474;DHT22;5793;52.238;13.438;2023-09-19T04:39:34;16.20;99.90
11474;DHT22;5793;52.238;13.438;2023-09-19T04:42:02;16.20;99.90
11474;DHT22;5793;52.238;13.438;2023-09-19T04:44:31;16.40;99.90
11474;DHT22;5793;52.238;13.438;2023-09-19T04:46:58;16.30;99.90
11474;DHT22;5793;52.238;13.438;2023-09-19T04:49:27;16.30;99.90
11474;DHT22;5793;52.238;13.438;2023-09-19T04:51:54;16.30;99.90
11474;DHT22;5793;52.238;13.438;2023-09-19T04:54:24;16.30;99.90
11474;DHT22;5793;52.238;13.438;2023-09-19T04:56:51;16.30;99.90
11474;DHT22;5793;52.238;13.438;2023-09-19T04:59:19;16.30;99.90
11474;DHT22;5793;52.238;13.438;2023-09-19T05:01:47;16.20;99.90
11474;DHT22;5793;52.238;13.438;2023-09-19T05:04:15;16.30;99.90
11474;DHT22;5793;52.238;13.438;2023-09-19T05:06:43;16.20;99.90
11474;DHT22;5793;52.238;13.438;2023-09-19T05:09:12;16.20;99.90
11474;DHT22;5793;52.238;13.438;2023-09-19T05:11:43;16.10;99.90
11474;DHT22;5793;52.238;13.438;2023-09-19T05:14:11;16.10;99.90
11474;DHT22;5793;52.238;13.438;2023-09-19T05:16:39;16.20;99.90
11474;DHT22;5793;52.238;13.438;2023-09-19T05:19:07;16.30;99.90
11474;DHT22;5793;52.238;13.438;2023-09-19T05:21:38;16.20;99.90
11474;DHT22;5793;52.238;13.438;2023-09-19T05:24:06;16.20;99.90
11474;DHT22;5793;52.238;13.438;2023-09-19T05:26:37;16.20;99.90
11474;DHT22;5793;52.238;13.438;2023-09-19T05:29:06;16.20;99.90
11474;DHT22;5793;52.238;13.438;2023-09-19T05:31:34;16.10;99.90
11474;DHT22;5793;52.238;13.438;2023-09-19T05:34:07;16.10;99.90
11474;DHT22;5793;52.238;13.438;2023-09-19T05:36:36;16.10;99.90
11474;DHT22;5793;52.238;13.438;2023-09-19T05:39:06;16.10;99.90
11474;DHT22;5793;52.238;13.438;2023-09-19T05:41:36;16.10;99.90
11474;DHT22;5793;52.238;13.438;2023-09-19T05:44:08;16.10;99.90
11474;DHT22;5793;52.238;13.438;2023-09-19T05:46:35;16.20;99.90
11474;DHT22;5793;52.238;13.438;2023-09-19T05:49:04;16.20;99.90
11474;DHT22;5793;52.238;13.438;2023-09-19T05:51:31;16.10;99.90
11474;DHT22;5793;52.238;13.438;2023-09-19T05:53:59;16.10;99.90
11474;DHT22;5793;52.238;13.438;2023-09-19T05:56:27;16.10;99.90
11474;DHT22;5793;52.238;13.438;2023-09-19T05:58:55;16.10;99.90
11474;DHT22;5793;52.238;13.438;2023-09-19T06:01:24;16.10;99.90
11474;DHT22;5793;52.238;13.438;2023-09-19T06:03:52;16.20;99.90
11474;DHT22;5793;52.238;13.438;2023-09-19T06:06:20;16.20;99.90
11474;DHT22;5793;52.238;13.438;2023-09-19T06:08:50;16.20;99.90
11474;DHT22;5793;52.238;13.438;2023-09-19T06:11:18;16.20;99.90
11474;DHT22;5793;52.238;13.438;2023-09-19T06:13:47;16.20;99.90
11474;DHT22;5793;52.238;13.438;2023-09-19T06:16:15;16.20;99.90
11474;DHT22;5793;52.238;13.438;2023-09-19T06:18:44;16.20;99.90
11474;DHT22;5793;52.238;13.438;2023-09-19T06:21:12;16.20;99.90
11474;DHT22;5793;52.238;13.438;2023-09-19T06:23:40;16.20;99.90
11474;DHT22;5793;52.238;13.438;2023-09-19T06:26:08;16.30;99.90
11474;DHT22;5793;52.238;13.438;2023-09-19T06:28:35;16.30;99.90
11474;DHT22;5793;52.238;13.438;2023-09-19T06:31:03;16.30;99.90
11474;DHT22;5793;52.238;13.438;2023-09-19T06:33:36;16.40;99.90
11474;DHT22;5793;52.238;13.438;2023-09-19T06:36:07;16.50;99.90
11474;DHT22;5793;52.238;13.438;2023-09-19T06:38:35;16.50;99.90
11474;DHT22;5793;52.238;13.438;2023-09-19T06:41:03;16.60;99.90
11474;DHT22;5793;52.238;13.438;2023-09-19T06:43:34;16.60;99.90
11474;DHT22;5793;52.238;13.438;2023-09-19T06:46:02;16.60;99.90
11474;DHT22;5793;52.238;13.438;2023-09-19T06:48:30;16.60;99.90
11474;DHT22;5793;52.238;13.438;2023-09-19T06:51:00;16.60;99.90
11474;DHT22;5793;52.238;13.438;2023-09-19T06:53:32;16.60;99.90
11474;DHT22;5793;52.238;13.438;2023-09-19T06:56:01;16.60;99.90
11474;DHT22;5793;52.238;13.438;2023-09-19T06:58:29;16.70;99.90
11474;DHT22;5793;52.238;13.438;2023-09-19T07:00:58;16.80;99.90
11474;DHT22;5793;52.238;13.438;2023-09-19T07:03:26;16.80;99.90
11474;DHT22;5793;52.238;13.438;2023-09-19T07:05:55;16.90;99.90
11474;DHT22;5793;52.238;13.438;2023-09-19T07:08:25;16.80;99.90
11474;DHT22;5793;52.238;13.438;2023-09-19T07:10:56;17.00;99.90
11474;DHT22;5793;52.238;13.438;2023-09-19T07:13:24;17.10;99.90
11474;DHT22;5793;52.238;13.438;2023-09-19T07:15:52;17.30;99.90
11474;DHT22;5793;52.238;13.438;2023-09-19T07:18:21;17.40;99.90
11474;DHT22;5793;52.238;13.438;2023-09-19T07:20:48;17.60;99.90
11474;DHT22;5793;52.238;13.438;2023-09-19T07:23:17;17.90;99.90
11474;DHT22;5793;52.238;13.438;2023-09-19T07:25:47;18.10;99.90
11474;DHT22;5793;52.238;13.438;2023-09-19T07:28:17;18.40;99.90
11474;DHT22;5793;52.238;13.438;2023-09-19T07:30:45;18.50;99.90
11474;DHT22;5793;52.238;13.438;2023-09-19T07:33:13;18.70;99.90
11474;DHT22;5793;52.238;13.438;2023-09-19T07:35:45;18.80;99.90
11474;DHT22;5793;52.238;13.438;2023-09-19T07:38:13;18.90;99.90
11474;DHT22;5793;52.238;13.438;2023-09-19T07:40:40;19.10;99.90
11474;DHT22;5793;52.238;13.438;2023-09-19T07:43:08;19.30;99.90
11474;DHT22;5793;52.238;13.438;2023-09-19T07:45:37;19.60;99.90
11474;DHT22;5793;52.238;13.438;2023-09-19T07:48:07;19.90;99.90
11474;DHT22;5793;52.238;13.438;2023-09-19T07:50:41;20.10;99.90
11474;DHT22;5793;52.238;13.438;2023-09-19T07:53:10;20.30;99.90
11474;DHT22;5793;52.238;13.438;2023-09-19T07:55:40;20.20;99.90
11474;DHT22;5793;52.238;13.438;2023-09-19T07:58:08;20.20;99.90
11474;DHT22;5793;52.238;13.438;2023-09-19T08:00:37;20.00;99.90
11474;DHT22;5793;52.238;13.438;2023-09-19T08:03:06;20.00;99.90
11474;DHT22;5793;52.238;13.438;2023-09-19T08:05:43;20.00;99.90
11474;DHT22;5793;52.238;13.438;2023-09-19T08:08:12;20.00;99.90
11474;DHT22;5793;52.238;13.438;2023-09-19T08:10:41;20.10;99.90
11474;DHT22;5793;52.238;13.438;2023-09-19T08:13:13;20.30;99.90
11474;DHT22;5793;52.238;13.438;2023-09-19T08:15:44;20.70;99.90
11474;DHT22;5793;52.238;13.438;2023-09-19T08:18:13;21.60;99.90
11474;DHT22;5793;52.238;13.438;2023-09-19T08:20:41;21.60;99.90
11474;DHT22;5793;52.238;13.438;2023-09-19T08:23:09;21.10;99.90
11474;DHT22;5793;52.238;13.438;2023-09-19T08:25:37;21.50;99.90
11474;DHT22;5793;52.238;13.438;2023-09-19T08:28:06;22.70;99.90
11474;DHT22;5793;52.238;13.438;2023-09-19T08:30:38;23.10;99.90
11474;DHT22;5793;52.238;13.438;2023-09-19T08:33:08;22.90;99.90
11474;DHT22;5793;52.238;13.438;2023-09-19T08:35:37;22.30;99.90
11474;DHT22;5793;52.238;13.438;2023-09-19T08:38:06;22.30;99.90
11474;DHT22;5793;52.238;13.438;2023-09-19T08:40:37;22.50;99.90
11474;DHT22;5793;52.238;13.438;2023-09-19T08:43:07;22.10;99.90
11474;DHT22;5793;52.238;13.438;2023-09-19T08:45:35;21.90;99.90
11474;DHT22;5793;52.238;13.438;2023-09-19T08:48:17;22.00;99.90
11474;DHT22;5793;52.238;13.438;2023-09-19T08:50:51;22.60;99.90
11474;DHT22;5793;52.238;13.438;2023-09-19T08:53:26;22.00;99.90
11474;DHT22;5793;52.238;13.438;2023-09-19T08:55:56;21.30;99.90
11474;DHT22;5793;52.238;13.438;2023-09-19T08:58:26;21.00;99.90
11474;DHT22;5793;52.238;13.438;2023-09-19T09:00:58;21.20;99.90
11474;DHT22;5793;52.238;13.438;2023-09-19T09:03:32;22.50;99.90
11474;DHT22;5793;52.238;13.438;2023-09-19T09:06:01;23.50;99.90
11474;DHT22;5793;52.238;13.438;2023-09-19T09:08:31;22.80;99.90
11474;DHT22;5793;52.238;13.438;2023-09-19T09:11:01;22.10;99.90
11474;DHT22;5793;52.238;13.438;2023-09-19T09:13:29;22.30;99.90
11474;DHT22;5793;52.238;13.438;2023-09-19T09:15:57;24.70;99.90
11474;DHT22;5793;52.238;13.438;2023-09-19T09:18:26;26.20;99.90
11474;DHT22;5793;52.238;13.438;2023-09-19T09:20:55;28.80;94.60
11474;DHT22;5793;52.238;13.438;2023-09-19T09:23:23;31.00;78.30
11474;DHT22;5793;52.238;13.438;2023-09-19T09:25:53;31.50;66.30
11474;DHT22;5793;52.238;13.438;2023-09-19T09:28:27;31.80;63.70
11474;DHT22;5793;52.238;13.438;2023-09-19T09:30:55;31.90;60.60
11474;DHT22;5793;52.238;13.438;2023-09-19T09:33:25;31.80;58.80
11474;DHT22;5793;52.238;13.438;2023-09-19T09:35:55;31.90;57.90
11474;DHT22;5793;52.238;13.438;2023-09-19T09:38:25;31.70;57.50
11474;DHT22;5793;52.238;13.438;2023-09-19T09:40:55;32.10;57.20
11474;DHT22;5793;52.238;13.438;2023-09-19T09:43:30;32.00;57.70
11474;DHT22;5793;52.238;13.438;2023-09-19T09:46:12;31.60;57.60
11474;DHT22;5793;52.238;13.438;2023-09-19T09:48:59;31.20;58.50
11474;DHT22;5793;52.238;13.438;2023-09-19T09:51:49;31.70;57.10
11474;DHT22;5793;52.238;13.438;2023-09-19T09:54:26;31.80;56.10
11474;DHT22;5793;52.238;13.438;2023-09-19T09:57:02;31.90;56.50
11474;DHT22;5793;52.238;13.438;2023-09-19T09:59:45;31.50;57.40
11474;DHT22;5793;52.238;13.438;2023-09-19T10:02:18;30.30;58.40
11474;DHT22;5793;52.238;13.438;2023-09-19T10:04:52;30.30;58.40
11474;DHT22;5793;52.238;13.438;2023-09-19T10:07:28;30.60;58.00
11474;DHT22;5793;52.238;13.438;2023-09-19T10:10:07;29.50;59.60
11474;DHT22;5793;52.238;13.438;2023-09-19T10:12:45;28.70;59.70
11474;DHT22;5793;52.238;13.438;2023-09-19T10:15:15;26.80;63.20
11474;DHT22;5793;52.238;13.438;2023-09-19T10:17:44;26.30;65.60
11474;DHT22;5793;52.238;13.438;2023-09-19T10:20:13;26.40;66.20
11474;DHT22;5793;52.238;13.438;2023-09-19T10:23:06;25.70;67.70
11474;DHT22;5793;52.238;13.438;2023-09-19T10:25:38;25.50;70.60
11474;DHT22;5793;52.238;13.438;2023-09-19T10:28:07;25.30;70.00
11474;DHT22;5793;52.238;13.438;2023-09-19T10:30:42;25.60;72.20
11474;DHT22;5793;52.238;13.438;2023-09-19T10:33:13;25.60;73.10
11474;DHT22;5793;52.238;13.438;2023-09-19T10:35:43;25.80;72.60
11474;DHT22;5793;52.238;13.438;2023-09-19T10:38:14;25.80;70.40
11474;DHT22;5793;52.238;13.438;2023-09-19T10:40:49;25.60;71.10
11474;DHT22;5793;52.238;13.438;2023-09-19T10:43:19;25.80;71.90
11474;DHT22;5793;52.238;13.438;2023-09-19T10:45:49;26.20;70.50
11474;DHT22;5793;52.238;13.438;2023-09-19T10:48:20;26.10;68.30
11474;DHT22;5793;52.238;13.438;2023-09-19T10:51:06;26.20;68.10
11474;DHT22;5793;52.238;13.438;2023-09-19T10:53:44;26.50;67.80
11474;DHT22;5793;52.238;13.438;2023-09-19T10:56:19;26.60;66.80
11474;DHT22;5793;52.238;13.438;2023-09-19T10:58:49;26.70;65.80
11474;DHT22;5793;52.238;13.438;2023-09-19T11:01:18;26.60;66.40
11474;DHT22;5793;52.238;13.438;2023-09-19T11:03:47;26.90;64.60
11474;DHT22;5793;52.238;13.438;2023-09-19T11:06:17;26.60;64.70
11474;DHT22;5793;52.238;13.438;2023-09-19T11:08:55;26.30;65.50
11474;DHT22;5793;52.238;13.438;2023-09-19T11:11:45;26.70;64.20
11474;DHT22;5793;52.238;13.438;2023-09-19T11:14:42;26.10;64.80
11474;DHT22;5793;52.238;13.438;2023-09-19T11:17:31;25.70;66.60
11474;DHT22;5793;52.238;13.438;2023-09-19T11:23:23;25.50;69.60
11474;DHT22;5793;52.238;13.438;2023-09-19T11:25:53;25.20;67.50
11474;DHT22;5793;52.238;13.438;2023-09-19T11:28:34;24.00;69.70
11474;DHT22;5793;52.238;13.438;2023-09-19T11:40:29;23.40;74.40
11474;DHT22;5793;52.238;13.438;2023-09-19T11:42:59;23.50;74.80
11474;DHT22;5793;52.238;13.438;2023-09-19T11:48:39;23.40;74.50
11474;DHT22;5793;52.238;13.438;2023-09-19T11:51:14;23.40;73.50
11474;DHT22;5793;52.238;13.438;2023-09-19T11:53:51;23.50;73.40
11474;DHT22;5793;52.238;13.438;2023-09-19T11:56:20;23.10;74.40
11474;DHT22;5793;52.238;13.438;2023-09-19T11:58:53;22.90;74.80
11474;DHT22;5793;52.238;13.438;2023-09-19T12:01:25;22.80;75.00
11474;DHT22;5793;52.238;13.438;2023-09-19T12:03:57;23.00;75.20
11474;DHT22;5793;52.238;13.438;2023-09-19T12:06:26;23.10;74.10
11474;DHT22;5793;52.238;13.438;2023-09-19T12:08:54;23.10;74.50
11474;DHT22;5793;52.238;13.438;2023-09-19T12:11:26;22.90;74.50
11474;DHT22;5793;52.238;13.438;2023-09-19T12:13:56;22.90;75.40
11474;DHT22;5793;52.238;13.438;2023-09-19T12:16:27;23.00;76.00
11474;DHT22;5793;52.238;13.438;2023-09-19T12:18:57;23.10;75.30
11474;DHT22;5793;52.238;13.438;2023-09-19T12:21:27;23.00;76.20
11474;DHT22;5793;52.238;13.438;2023-09-19T12:24:07;22.90;76.60
11474;DHT22;5793;52.238;13.438;2023-09-19T12:26:41;22.90;78.10
11474;DHT22;5793;52.238;13.438;2023-09-19T12:29:15;23.00;78.20
11474;DHT22;5793;52.238;13.438;2023-09-19T12:31:49;22.90;78.70
11474;DHT22;5793;52.238;13.438;2023-09-19T12:34:22;22.80;79.00
11474;DHT22;5793;52.238;13.438;2023-09-19T12:37:04;22.70;77.60
11474;DHT22;5793;52.238;13.438;2023-09-19T12:39:38;22.60;78.40
11474;DHT22;5793;52.238;13.438;2023-09-19T12:42:09;22.60;77.10
11474;DHT22;5793;52.238;13.438;2023-09-19T12:44:40;22.60;76.50
11474;DHT22;5793;52.238;13.438;2023-09-19T12:47:11;22.60;77.80
11474;DHT22;5793;52.238;13.438;2023-09-19T12:50:09;22.60;76.30
11474;DHT22;5793;52.238;13.438;2023-09-19T12:52:43;22.70;77.50
11474;DHT22;5793;52.238;13.438;2023-09-19T12:55:22;22.70;77.50
11474;DHT22;5793;52.238;13.438;2023-09-19T12:58:01;22.70;77.10
11474;DHT22;5793;52.238;13.438;2023-09-19T13:00:36;22.70;76.60
11474;DHT22;5793;52.238;13.438;2023-09-19T13:03:25;22.50;75.30
11474;DHT22;5793;52.238;13.438;2023-09-19T13:05:57;22.20;75.50
11474;DHT22;5793;52.238;13.438;2023-09-19T13:08:28;22.10;77.30
11474;DHT22;5793;52.238;13.438;2023-09-19T13:11:11;22.10;77.00
11474;DHT22;5793;52.238;13.438;2023-09-19T13:13:42;22.20;77.30
11474;DHT22;5793;52.238;13.438;2023-09-19T13:16:16;22.20;76.10
11474;DHT22;5793;52.238;13.438;2023-09-19T13:18:51;22.20;76.10
11474;DHT22;5793;52.238;13.438;2023-09-19T13:21:31;22.10;76.60
11474;DHT22;5793;52.238;13.438;2023-09-19T13:24:20;22.20;76.00
11474;DHT22;5793;52.238;13.438;2023-09-19T13:26:49;22.20;76.10
11474;DHT22;5793;52.238;13.438;2023-09-19T13:29:18;22.20;76.20
11474;DHT22;5793;52.238;13.438;2023-09-19T13:31:47;22.30;77.10
11474;DHT22;5793;52.238;13.438;2023-09-19T13:34:16;22.40;76.10
11474;DHT22;5793;52.238;13.438;2023-09-19T13:36:45;22.30;77.00
11474;DHT22;5793;52.238;13.438;2023-09-19T13:39:15;22.20;76.10
11474;DHT22;5793;52.238;13.438;2023-09-19T13:41:44;21.90;76.70
11474;DHT22;5793;52.238;13.438;2023-09-19T13:44:13;22.00;79.50
11474;DHT22;5793;52.238;13.438;2023-09-19T13:46:43;22.00;77.00
11474;DHT22;5793;52.238;13.438;2023-09-19T13:49:15;22.00;75.80
11474;DHT22;5793;52.238;13.438;2023-09-19T13:51:47;21.90;75.80
11474;DHT22;5793;52.238;13.438;2023-09-19T13:54:15;21.90;77.50
11474;DHT22;5793;52.238;13.438;2023-09-19T13:56:43;21.90;77.20
11474;DHT22;5793;52.238;13.438;2023-09-19T13:59:11;22.00;77.40
11474;DHT22;5793;52.238;13.438;2023-09-19T14:01:39;22.00;77.10
11474;DHT22;5793;52.238;13.438;2023-09-19T14:04:08;21.90;77.50
11474;DHT22;5793;52.238;13.438;2023-09-19T14:06:41;21.90;78.20
11474;DHT22;5793;52.238;13.438;2023-09-19T14:09:09;22.10;78.30
11474;DHT22;5793;52.238;13.438;2023-09-19T14:11:39;22.10;78.30
11474;DHT22;5793;52.238;13.438;2023-09-19T14:14:08;22.10;78.40
11474;DHT22;5793;52.238;13.438;2023-09-19T14:16:37;22.00;79.10
11474;DHT22;5793;52.238;13.438;2023-09-19T14:19:06;21.90;79.30
11474;DHT22;5793;52.238;13.438;2023-09-19T14:21:34;21.80;78.90
11474;DHT22;5793;52.238;13.438;2023-09-19T14:24:04;21.80;79.40
11474;DHT22;5793;52.238;13.438;2023-09-19T14:26:35;21.90;78.60
11474;DHT22;5793;52.238;13.438;2023-09-19T14:29:03;21.90;77.30
11474;DHT22;5793;52.238;13.438;2023-09-19T14:31:37;21.80;77.00
11474;DHT22;5793;52.238;13.438;2023-09-19T14:34:04;21.80;78.00
11474;DHT22;5793;52.238;13.438;2023-09-19T14:36:32;21.70;77.40
11474;DHT22;5793;52.238;13.438;2023-09-19T14:39:00;21.60;77.70
11474;DHT22;5793;52.238;13.438;2023-09-19T14:41:30;21.50;77.70
11474;DHT22;5793;52.238;13.438;2023-09-19T14:43:58;21.40;77.50
11474;DHT22;5793;52.238;13.438;2023-09-19T14:46:26;21.20;78.10
11474;DHT22;5793;52.238;13.438;2023-09-19T14:48:56;21.20;78.50
11474;DHT22;5793;52.238;13.438;2023-09-19T14:51:27;21.20;80.10
11474;DHT22;5793;52.238;13.438;2023-09-19T14:53:55;21.20;79.00
11474;DHT22;5793;52.238;13.438;2023-09-19T14:56:24;21.10;78.80
11474;DHT22;5793;52.238;13.438;2023-09-19T14:58:53;21.20;80.00
11474;DHT22;5793;52.238;13.438;2023-09-19T15:01:21;21.10;80.60
11474;DHT22;5793;52.238;13.438;2023-09-19T15:03:49;21.10;80.10
11474;DHT22;5793;52.238;13.438;2023-09-19T15:06:18;21.10;79.80
11474;DHT22;5793;52.238;13.438;2023-09-19T15:08:47;21.10;80.50
11474;DHT22;5793;52.238;13.438;2023-09-19T15:11:17;21.00;80.30
11474;DHT22;5793;52.238;13.438;2023-09-19T15:13:48;21.00;80.60
11474;DHT22;5793;52.238;13.438;2023-09-19T15:16:19;20.90;80.70
11474;DHT22;5793;52.238;13.438;2023-09-19T15:18:47;20.80;80.90
11474;DHT22;5793;52.238;13.438;2023-09-19T15:21:15;20.90;81.60
11474;DHT22;5793;52.238;13.438;2023-09-19T15:23:43;20.90;81.60
11474;DHT22;5793;52.238;13.438;2023-09-19T15:26:13;20.80;81.10
11474;DHT22;5793;52.238;13.438;2023-09-19T15:28:44;20.70;80.60
11474;DHT22;5793;52.238;13.438;2023-09-19T15:31:13;20.70;81.80
11474;DHT22;5793;52.238;13.438;2023-09-19T15:33:42;20.70;81.40
11474;DHT22;5793;52.238;13.438;2023-09-19T15:36:11;20.70;81.60
11474;DHT22;5793;52.238;13.438;2023-09-19T15:38:58;20.70;82.80
11474;DHT22;5793;52.238;13.438;2023-09-19T15:41:27;20.70;82.50
11474;DHT22;5793;52.238;13.438;2023-09-19T15:43:56;20.80;82.50
11474;DHT22;5793;52.238;13.438;2023-09-19T15:46:24;20.80;81.20
11474;DHT22;5793;52.238;13.438;2023-09-19T15:48:54;20.80;80.70
11474;DHT22;5793;52.238;13.438;2023-09-19T15:51:22;20.80;81.20
11474;DHT22;5793;52.238;13.438;2023-09-19T15:53:52;20.70;81.60
11474;DHT22;5793;52.238;13.438;2023-09-19T15:56:21;20.80;81.20
11474;DHT22;5793;52.238;13.438;2023-09-19T15:58:50;20.70;81.00
11474;DHT22;5793;52.238;13.438;2023-09-19T16:01:21;20.70;81.70
11474;DHT22;5793;52.238;13.438;2023-09-19T16:03:50;20.80;81.80
11474;DHT22;5793;52.238;13.438;2023-09-19T16:06:22;20.70;82.00
11474;DHT22;5793;52.238;13.438;2023-09-19T16:08:52;20.60;81.20